map of KOJA home
KOJA - Airport
Location
City:  Weatherford, Oklahoma, United States
Name:Thomas P Stafford Airport
ICAO:KOJA
FAA LID:OJA

Details
Type:Airport (Airfield)
Use:Public/Civil
Latitude:3532'45"N (35.545806)
Longitude:9840'07"W (-98.668499)
Datum:WGS 1984
Elevation:1605 ft (489 m)
Variation:4.33E (WMM2015 magnetic declination)
-0.11 annual change
Runways:1
Longest:5100 × 75 ft (1554 × 23 m), paved

Time
Time Zone:UTC-6 (DST-5)
Local Time:

Weather
METAR:KOJA 161135Z AUTO 01004KT 10SM CLR 05/01 A3011 RMK AO2

Related Locations
Nearby:
Farthest:RRG: 10895 mi / 17534 km
Plaine Corail [Sir Gatan Duval Airport (Plaine Corail Airport)], Rodrigues Island, MU

Find:

   beyond  
but within

Other Information
Maps:
NOTAMs:
Links:
Sources:

  
  • flag of United States
  • flag of Oklahoma
  

Sectional Chart

Flight Planning
at skyvector.com

Satellite Image

Google Maps Satellite view

 

Copyright © 2004-2018 Karl L. Swartz. All rights reserved.
The Great Circle Mapper name and logo are trademarks of the Great Circle Mapper.
All other trademarks mentioned herein belong to their respective owners.
Please see credits for attibutions and further copyright information.

  Follow gcmap on Facebook Follow gcmap on Twitter Follow gcmap on Google+ GCmap on LinkedIn

hCard Microformat

Geo Microformat